Canton, Kentucky
Current Conditions -  °F | °C
As of 5:58 PM on Monday 22 Dec 2014 (Local Time) from KHOP Reporting Station
Overcast Overcast  
Wind Chill: 53°   Ceiling: 1100
Heat Index: 53°   Visibility: 10mi
Dew Point: 48°   Wind: 12mph
Humidity: 85%   Direction: 150°SSE
Pressure: 29.66"   Gusts: 21mph
Location:  36.8031°N, 87.8159°W
Report Text: KHOP 222358Z AUTO 15010G18KT 10SM OVC011 11/09 A2966 RMK AO2 SLP046 T01140090 10116 20113 57014
Loading
Personal Weather Stations






























Interactive Weather Map New forecast layout! Learn more

10-Day Weather Forecast

Advertisements
Track Severe Weather on mobile